createdAt,value
2022-11-21T00:01:23.738Z,95996.00
2022-11-21T00:03:51.581Z,96008.91
2022-11-21T00:06:19.061Z,95999.03
2022-11-21T00:08:46.974Z,95997.59
2022-11-21T00:11:15.636Z,95973.25
2022-11-21T00:13:43.434Z,95971.28
2022-11-21T00:16:13.172Z,95961.28
2022-11-21T00:18:40.417Z,95956.06
2022-11-21T00:21:15.946Z,95966.25
2022-11-21T00:23:43.876Z,95977.59
2022-11-21T00:26:13.745Z,95963.03
2022-11-21T00:28:42.067Z,95963.72
2022-11-21T00:31:10.246Z,95959.28
2022-11-21T00:33:39.404Z,95968.47
2022-11-21T00:36:10.411Z,95941.50
2022-11-21T00:38:38.011Z,95949.25
2022-11-21T00:41:06.388Z,95946.72
2022-11-21T00:43:34.068Z,95906.88
2022-11-21T00:46:03.407Z,95913.31
2022-11-21T00:48:33.000Z,95888.25
2022-11-21T00:51:01.072Z,95907.25
2022-11-21T00:53:29.168Z,95907.66
2022-11-21T00:55:56.372Z,95898.19
2022-11-21T00:58:23.577Z,95869.13
2022-11-21T01:00:51.797Z,95908.47
2022-11-21T01:03:19.294Z,95856.09
2022-11-21T01:05:46.382Z,95859.69
2022-11-21T01:08:13.657Z,95876.56
2022-11-21T01:10:40.694Z,95867.91
2022-11-21T01:13:11.731Z,95839.88
2022-11-21T01:15:38.688Z,95806.38
2022-11-21T01:18:05.738Z,95872.84
2022-11-21T01:20:32.654Z,95861.78
2022-11-21T01:22:59.664Z,95852.97
2022-11-21T01:25:26.702Z,95866.53
2022-11-21T01:27:56.327Z,95860.25
2022-11-21T01:30:23.655Z,95873.22
2022-11-21T01:32:52.556Z,95869.06
2022-11-21T01:35:19.891Z,95867.69
2022-11-21T01:37:48.931Z,95869.28
2022-11-21T01:40:17.439Z,95839.13
2022-11-21T01:43:03.197Z,95845.34
2022-11-21T01:45:49.168Z,95848.97
2022-11-21T01:48:17.005Z,95812.53
2022-11-21T01:50:44.337Z,95830.53
2022-11-21T01:53:12.007Z,95824.75
2022-11-21T01:55:38.910Z,95787.22
2022-11-21T01:58:06.221Z,95788.72
2022-11-21T02:00:55.399Z,95837.63
2022-11-21T02:03:27.786Z,95829.34
2022-11-21T02:05:56.192Z,95807.25
2022-11-21T02:08:26.027Z,95813.97
2022-11-21T02:11:02.126Z,95870.19
2022-11-21T02:13:29.074Z,95849.69
2022-11-21T02:15:56.856Z,95842.00
2022-11-21T02:18:23.830Z,95786.88
2022-11-21T02:21:00.104Z,95789.78
2022-11-21T02:23:29.728Z,95831.72
2022-11-21T02:25:56.992Z,95815.34
2022-11-21T02:28:25.034Z,95818.38
2022-11-21T02:30:51.970Z,95795.16
2022-11-21T02:33:18.936Z,95775.19
2022-11-21T02:35:59.504Z,95770.22
2022-11-21T02:38:34.827Z,95794.59
2022-11-21T02:41:10.295Z,95822.78
2022-11-21T02:43:47.801Z,95832.34
2022-11-21T02:46:17.032Z,95827.19
2022-11-21T02:48:44.473Z,95834.94
2022-11-21T02:51:11.660Z,95835.47
2022-11-21T02:53:39.037Z,95823.88
2022-11-21T02:56:06.131Z,95829.84
2022-11-21T02:58:33.436Z,95821.28
2022-11-21T03:01:00.569Z,95825.78
2022-11-21T03:03:27.695Z,95807.13
2022-11-21T03:05:55.502Z,95822.25
2022-11-21T03:08:22.531Z,95824.88
2022-11-21T03:10:49.544Z,95836.78
2022-11-21T03:13:16.453Z,95813.94
2022-11-21T03:15:43.455Z,95820.00
2022-11-21T03:18:10.967Z,95802.91
2022-11-21T03:20:38.049Z,95812.88
2022-11-21T03:23:05.120Z,95805.06
2022-11-21T03:25:32.216Z,95799.25
2022-11-21T03:27:59.250Z,95818.38
2022-11-21T03:30:27.616Z,95796.88
2022-11-21T03:32:58.440Z,95786.25
2022-11-21T03:35:26.474Z,95776.78
2022-11-21T03:37:53.688Z,95784.16
2022-11-21T03:40:20.943Z,95786.84
2022-11-21T03:42:48.077Z,95795.78
2022-11-21T03:45:16.151Z,95795.78
2022-11-21T03:47:43.458Z,95769.38
2022-11-21T03:50:10.902Z,95780.81
2022-11-21T03:52:37.952Z,95781.53
2022-11-21T03:55:05.529Z,95760.53
2022-11-21T03:57:32.419Z,95748.91
2022-11-21T03:59:59.348Z,95761.59
2022-11-21T04:02:26.265Z,95753.09
2022-11-21T04:04:53.800Z,95756.97
2022-11-21T04:07:21.020Z,95732.56
2022-11-21T04:09:48.070Z,95744.34
2022-11-21T04:12:15.018Z,95724.22
2022-11-21T04:14:44.338Z,95736.09
2022-11-21T04:17:11.454Z,95726.09
2022-11-21T04:19:38.446Z,95717.38
2022-11-21T04:22:05.624Z,95710.03
2022-11-21T04:24:35.339Z,95719.16
2022-11-21T04:27:02.296Z,95711.06
2022-11-21T04:29:29.324Z,95715.59
2022-11-21T04:31:56.811Z,95719.06
2022-11-21T04:34:24.197Z,95720.09
2022-11-21T04:36:51.311Z,95724.09
2022-11-21T04:39:20.388Z,95728.28
2022-11-21T04:41:48.329Z,95733.81
2022-11-21T04:44:15.782Z,95726.00
2022-11-21T04:46:42.924Z,95728.44
2022-11-21T04:49:09.914Z,95717.25
2022-11-21T04:51:36.933Z,95738.16
2022-11-21T04:54:04.067Z,95720.19
2022-11-21T04:56:33.385Z,95719.00
2022-11-21T04:59:00.873Z,95706.56
2022-11-21T05:01:28.104Z,95716.59
2022-11-21T05:03:55.171Z,95702.50
2022-11-21T05:06:22.217Z,95700.72
2022-11-21T05:08:53.447Z,95717.31
2022-11-21T05:11:40.201Z,95717.69
2022-11-21T05:14:07.931Z,95709.59
2022-11-21T05:16:35.945Z,95719.75
2022-11-21T05:19:02.926Z,95720.31
2022-11-21T05:21:30.066Z,95721.50
2022-11-21T05:23:58.256Z,95700.34
2022-11-21T05:26:26.344Z,95726.88
2022-11-21T05:28:53.387Z,95721.81
2022-11-21T05:31:20.311Z,95727.41
2022-11-21T05:33:48.895Z,95728.97
2022-11-21T05:36:15.864Z,95726.34
2022-11-21T05:38:43.336Z,95706.50
2022-11-21T05:41:12.029Z,95715.69
2022-11-21T05:43:48.172Z,95692.19
2022-11-21T05:46:21.407Z,95713.66
2022-11-21T05:48:49.426Z,95713.06
2022-11-21T05:51:20.077Z,95722.72
2022-11-21T05:53:48.087Z,95722.19
2022-11-21T05:56:19.068Z,95730.59
2022-11-21T05:58:46.532Z,95727.84
2022-11-21T06:01:15.305Z,95725.28
2022-11-21T06:03:44.242Z,95729.16
2022-11-21T06:06:20.871Z,95726.53
2022-11-21T06:08:50.913Z,95718.69
2022-11-21T06:11:18.006Z,95750.06
2022-11-21T06:13:46.193Z,95718.16
2022-11-21T06:16:16.723Z,95738.34
2022-11-21T06:18:50.066Z,95719.31
2022-11-21T06:21:24.095Z,95739.91
2022-11-21T06:23:54.135Z,95761.16
2022-11-21T06:26:24.868Z,95754.28
2022-11-21T06:28:52.900Z,95750.84
2022-11-21T06:31:24.525Z,95736.88
2022-11-21T06:33:57.098Z,95751.47
2022-11-21T06:36:28.463Z,95752.06
2022-11-21T06:38:56.264Z,95750.28
2022-11-21T06:41:26.938Z,95751.81
2022-11-21T06:43:54.016Z,95752.94
2022-11-21T06:46:22.702Z,95735.38
2022-11-21T06:48:50.694Z,95728.28
2022-11-21T06:51:23.854Z,95734.59
2022-11-21T06:53:56.667Z,95743.56
2022-11-21T06:56:29.917Z,95742.88
2022-11-21T06:58:57.824Z,95732.13
2022-11-21T07:01:25.951Z,95747.84
2022-11-21T07:03:53.719Z,95736.13
2022-11-21T07:06:22.858Z,95744.78
2022-11-21T07:09:17.708Z,95759.47
2022-11-21T07:11:42.948Z,95756.56
2022-11-21T07:14:18.682Z,95755.09
2022-11-21T07:16:48.251Z,95769.81
2022-11-21T07:19:24.696Z,95768.78
2022-11-21T07:21:52.970Z,95770.69
2022-11-21T07:24:19.797Z,95772.22
2022-11-21T07:26:49.605Z,95769.19
2022-11-21T07:29:17.233Z,95769.22
2022-11-21T07:31:44.359Z,95778.09
2022-11-21T07:34:11.637Z,95776.09
2022-11-21T07:36:39.537Z,95772.91
2022-11-21T07:39:06.766Z,95777.03
2022-11-21T07:41:34.273Z,95769.84
2022-11-21T07:44:04.776Z,95730.78
2022-11-21T07:46:32.341Z,95775.22
2022-11-21T07:49:03.053Z,95771.06
2022-11-21T07:51:32.194Z,95770.41
2022-11-21T07:54:03.904Z,95757.16
2022-11-21T07:56:34.414Z,95764.59
2022-11-21T07:59:01.635Z,95756.91
2022-11-21T08:01:33.941Z,95775.19
2022-11-21T08:04:02.910Z,95759.94
2022-11-21T08:06:31.611Z,95779.03
2022-11-21T08:08:58.755Z,95786.09
2022-11-21T08:11:26.190Z,95787.22
2022-11-21T08:13:53.235Z,95780.59
2022-11-21T08:16:28.119Z,95784.44
2022-11-21T08:19:43.035Z,95792.72
2022-11-21T08:22:22.299Z,95768.63
2022-11-21T08:25:07.383Z,95785.25
2022-11-21T08:27:49.153Z,95788.84
2022-11-21T08:30:17.300Z,95784.25
2022-11-21T08:32:46.553Z,95786.19
2022-11-21T08:35:21.599Z,95778.28
2022-11-21T08:38:07.757Z,95777.22
2022-11-21T08:40:36.638Z,95804.84
2022-11-21T08:43:09.266Z,95784.88
2022-11-21T08:45:39.003Z,95800.78
2022-11-21T08:48:15.198Z,95798.78
2022-11-21T08:50:42.335Z,95786.69
2022-11-21T08:53:09.518Z,95810.22
2022-11-21T08:55:36.504Z,95802.16
2022-11-21T08:58:03.477Z,95811.94
2022-11-21T09:00:48.612Z,95801.72
2022-11-21T09:03:22.239Z,95795.06
2022-11-21T09:05:51.835Z,95806.38
2022-11-21T09:08:20.026Z,95803.31
2022-11-21T09:10:48.078Z,95802.06
2022-11-21T09:13:15.229Z,95815.72
2022-11-21T09:16:00.718Z,95817.41
2022-11-21T09:18:27.630Z,95813.75
2022-11-21T09:20:54.612Z,95811.13
2022-11-21T09:23:21.867Z,95812.28
2022-11-21T09:25:50.612Z,95804.28
2022-11-21T09:28:20.165Z,95804.03
2022-11-21T09:30:48.760Z,95791.75
2022-11-21T09:33:17.131Z,95787.94
2022-11-21T09:35:45.993Z,95789.22
2022-11-21T09:38:20.985Z,95789.84
2022-11-21T09:40:51.872Z,95804.13
2022-11-21T09:43:32.588Z,95799.84
2022-11-21T09:46:24.398Z,95798.09
2022-11-21T09:49:22.143Z,95791.94
2022-11-21T09:51:53.592Z,95792.75
2022-11-21T09:54:31.674Z,95769.31
2022-11-21T09:57:03.388Z,95780.47
2022-11-21T09:59:39.796Z,95781.25
2022-11-21T10:02:17.061Z,95784.94
2022-11-21T10:04:48.707Z,95787.97
2022-11-21T10:07:25.107Z,95787.22
2022-11-21T10:10:19.698Z,95774.22
2022-11-21T10:13:06.508Z,95778.34
2022-11-21T10:16:41.893Z,95771.88
2022-11-21T10:19:25.565Z,95766.72
2022-11-21T10:22:17.458Z,95773.25
2022-11-21T10:24:59.920Z,95781.41
2022-11-21T10:27:38.676Z,95776.72
2022-11-21T10:30:35.666Z,95761.97
2022-11-21T10:33:08.335Z,95768.50
2022-11-21T10:35:41.686Z,95761.53
2022-11-21T10:38:19.162Z,95778.16
2022-11-21T10:40:52.131Z,95777.56
2022-11-21T10:44:05.742Z,95772.81
2022-11-21T10:46:36.021Z,95779.28
2022-11-21T10:49:04.981Z,95765.84
2022-11-21T10:51:47.166Z,95768.97
2022-11-21T10:54:33.836Z,95766.66
2022-11-21T10:57:17.892Z,95766.59
2022-11-21T11:00:03.566Z,95754.84
2022-11-21T11:02:37.311Z,95778.34
2022-11-21T11:05:22.373Z,95770.78
2022-11-21T11:08:09.349Z,95751.22
2022-11-21T11:10:45.741Z,95766.91
2022-11-21T11:13:46.993Z,95771.63
2022-11-21T11:16:22.250Z,95760.16
2022-11-21T11:19:01.809Z,95765.41
2022-11-21T11:21:55.891Z,95742.03
2022-11-21T11:24:30.964Z,95761.59
2022-11-21T11:27:03.003Z,95751.19
2022-11-21T11:29:35.555Z,95747.50
2022-11-21T11:32:04.801Z,95765.63
2022-11-21T11:34:42.122Z,95759.19
2022-11-21T11:37:28.466Z,95766.59
2022-11-21T11:40:18.944Z,95768.47
2022-11-21T11:43:26.532Z,95768.63
2022-11-21T11:46:28.669Z,95772.78
2022-11-21T11:49:33.058Z,95780.22
2022-11-21T11:52:02.470Z,95773.44
2022-11-21T11:54:56.114Z,95790.88
2022-11-21T11:57:24.020Z,95783.91
2022-11-21T12:00:17.965Z,95782.41
2022-11-21T12:03:08.658Z,95774.94
2022-11-21T12:05:41.299Z,95776.06
2022-11-21T12:08:40.888Z,95781.50
2022-11-21T12:12:08.782Z,95771.78
2022-11-21T12:15:06.995Z,95782.75
2022-11-21T12:17:47.462Z,95769.13
2022-11-21T12:20:42.679Z,95778.63
2022-11-21T12:23:13.692Z,95776.44
2022-11-21T12:26:09.353Z,95763.66
2022-11-21T12:29:05.237Z,95784.28
2022-11-21T12:31:42.658Z,95781.41
2022-11-21T12:34:34.494Z,95784.06
2022-11-21T12:37:42.702Z,95789.25
2022-11-21T12:40:28.602Z,95788.38
2022-11-21T12:43:20.642Z,95782.13
2022-11-21T12:45:48.527Z,95793.94
2022-11-21T12:48:37.123Z,95785.75
2022-11-21T12:51:59.171Z,95794.88
2022-11-21T12:55:04.343Z,95786.94
2022-11-21T12:57:50.923Z,95783.81
2022-11-21T13:00:32.759Z,95789.94
2022-11-21T13:03:36.682Z,95806.19
2022-11-21T13:06:07.936Z,95800.53
2022-11-21T13:08:40.129Z,95805.66
2022-11-21T13:15:13.856Z,95769.94
2022-11-21T13:17:47.611Z,95795.28
2022-11-21T13:20:38.382Z,95800.66
2022-11-21T13:23:25.549Z,95798.22
2022-11-21T13:26:10.322Z,95805.84
2022-11-21T13:28:38.100Z,95816.41
2022-11-21T13:31:31.920Z,95818.22
2022-11-21T13:34:42.155Z,95815.75
2022-11-21T13:37:56.575Z,95798.97
2022-11-21T13:40:28.790Z,95815.75
2022-11-21T13:43:34.514Z,95827.06
2022-11-21T13:49:23.706Z,95815.78
2022-11-21T13:51:56.869Z,95811.78
2022-11-21T13:54:25.625Z,95821.84
2022-11-21T13:57:47.409Z,95824.44
2022-11-21T14:00:25.098Z,95826.94
2022-11-21T14:03:07.884Z,95815.81
2022-11-21T14:06:26.025Z,95835.09
2022-11-21T14:09:22.698Z,95833.16
2022-11-21T14:11:55.984Z,95836.22
2022-11-21T14:17:53.533Z,95847.09
2022-11-21T14:20:25.740Z,95855.59
2022-11-21T14:23:12.195Z,95848.44
2022-11-21T14:25:59.835Z,95852.16
2022-11-21T14:28:32.630Z,95845.00
2022-11-21T14:31:29.690Z,95866.50
2022-11-21T14:38:15.438Z,95838.19
2022-11-21T14:44:23.745Z,95867.00
2022-11-21T14:47:19.783Z,95879.81
2022-11-21T14:50:07.411Z,95881.72
2022-11-21T14:52:35.566Z,95860.13
2022-11-21T14:55:28.946Z,95888.19
2022-11-21T14:57:58.759Z,95889.38
2022-11-21T15:00:58.517Z,95894.72
2022-11-21T15:06:11.094Z,95864.13
2022-11-21T15:11:39.230Z,95896.81
2022-11-21T15:14:31.414Z,95901.75
2022-11-21T15:17:01.467Z,95898.63
2022-11-21T15:19:30.197Z,95865.88
2022-11-21T15:22:01.157Z,95829.25
2022-11-21T15:24:36.376Z,95906.53
2022-11-21T15:27:32.892Z,95901.88
2022-11-21T15:30:22.228Z,95900.53
2022-11-21T15:33:07.404Z,95901.78
2022-11-21T15:35:37.669Z,95901.94
2022-11-21T15:38:41.213Z,95896.97
2022-11-21T15:41:09.908Z,95908.53
2022-11-21T15:43:48.170Z,95909.69
2022-11-21T15:46:24.905Z,95906.38
2022-11-21T15:48:55.121Z,95890.09
2022-11-21T15:54:22.694Z,95915.44
2022-11-21T15:56:50.219Z,95906.66
2022-11-21T15:57:13.576Z,95910.34
2022-11-21T15:57:14.645Z,95898.94
2022-11-21T15:59:17.906Z,95925.19
2022-11-21T16:01:45.050Z,95908.06
2022-11-21T16:04:22.357Z,95917.75
2022-11-21T16:06:52.228Z,95916.72
2022-11-21T16:09:19.535Z,95928.44
2022-11-21T16:11:47.148Z,95922.72
2022-11-21T16:14:19.417Z,95933.03
2022-11-21T16:16:49.402Z,95933.13
2022-11-21T16:19:16.448Z,95916.41
2022-11-21T16:21:45.126Z,95935.59
2022-11-21T16:24:12.175Z,95944.03
2022-11-21T16:30:59.741Z,95812.06
2022-11-21T16:34:19.929Z,95879.25
2022-11-21T16:41:55.449Z,95835.69
2022-11-21T16:50:22.073Z,95977.06
2022-11-21T16:53:48.153Z,95846.13
2022-11-21T16:58:45.058Z,95982.06
2022-11-21T17:01:32.201Z,95895.00
2022-11-21T17:08:24.614Z,95968.06
2022-11-21T17:11:20.730Z,95868.72
2022-11-21T17:14:17.809Z,95972.38
2022-11-21T17:17:24.940Z,95832.13
2022-11-21T17:28:42.343Z,95995.81
2022-11-21T17:32:49.690Z,95868.94
2022-11-21T17:35:39.105Z,95997.25
2022-11-21T17:42:51.371Z,95867.84
2022-11-21T17:47:02.779Z,96009.59
2022-11-21T19:09:53.043Z,96074.59
2022-11-21T19:18:09.289Z,96089.09
2022-11-21T19:22:24.459Z,95951.06
2022-11-21T19:35:19.947Z,95970.53
2022-11-21T19:51:29.561Z,96140.00
2022-11-21T19:54:11.635Z,96125.97
2022-11-21T19:57:49.534Z,96154.75
2022-11-21T20:13:02.056Z,96168.38
2022-11-21T20:30:38.995Z,96005.13
2022-11-21T20:38:44.767Z,96160.00
2022-11-21T21:59:14.761Z,96217.59
2022-11-21T22:02:46.474Z,96221.69
2022-11-21T22:05:59.391Z,96233.03
2022-11-21T22:08:54.313Z,96237.59
2022-11-21T22:11:26.301Z,96236.16
2022-11-21T22:13:54.359Z,96243.72
2022-11-21T22:16:21.784Z,96247.53
2022-11-21T22:18:48.880Z,96251.53
2022-11-21T22:21:17.874Z,96250.53
2022-11-21T22:24:02.956Z,96263.63
2022-11-21T22:26:32.220Z,96259.91
2022-11-21T22:28:59.037Z,96263.06
2022-11-21T22:31:26.015Z,96265.34
2022-11-21T22:33:55.049Z,96254.13
2022-11-21T22:36:21.826Z,96262.06
2022-11-21T22:38:48.602Z,96257.91
2022-11-21T22:41:17.403Z,96264.56
2022-11-21T22:43:45.062Z,96258.88
2022-11-21T22:46:12.938Z,96257.44
2022-11-21T22:48:40.302Z,96262.41
2022-11-21T22:51:07.645Z,96258.72
2022-11-21T22:53:41.187Z,96255.22
2022-11-21T22:56:10.055Z,96253.00
2022-11-21T22:58:38.139Z,96248.97
2022-11-21T23:01:15.656Z,96242.66
2022-11-21T23:03:43.192Z,96244.63
2022-11-21T23:06:12.711Z,96248.22
2022-11-21T23:08:40.031Z,96247.72
2022-11-21T23:11:09.483Z,96258.16
2022-11-21T23:13:37.069Z,96256.94
2022-11-21T23:16:05.015Z,96264.94
2022-11-21T23:18:36.770Z,96281.16
2022-11-21T23:21:04.546Z,96286.00
2022-11-21T23:23:31.651Z,96286.94
2022-11-21T23:25:59.153Z,96294.44
2022-11-21T23:28:26.117Z,96301.19
2022-11-21T23:30:53.093Z,96312.13
2022-11-21T23:33:23.039Z,96309.97
2022-11-21T23:35:49.980Z,96314.19
2022-11-21T23:38:17.648Z,96330.56
2022-11-21T23:40:45.079Z,96318.81
2022-11-21T23:43:12.193Z,96312.88
2022-11-21T23:45:41.175Z,96314.06
2022-11-21T23:48:08.706Z,96314.31
2022-11-21T23:50:35.790Z,96313.31
2022-11-21T23:53:03.160Z,96311.03
2022-11-21T23:55:30.050Z,96307.53
2022-11-21T23:57:57.760Z,96312.44
